Time;durP1;ratioP1;P1;durP2;ratioP2;P2;SDS_P1;SDS_P2;PMS_P1;PMS_P2;Temp;Humidity;BMP_temperature;BMP_pressure;BME280_temperature;BME280_humidity;BME280_pressure;Samples;Min_cycle;Max_cycle;Signal;HPM_P1;HPM_P2
2021/08/26 00:01:03;;;;;;;0.52;0.43;;;14.70;99.90;;;;;;5033526;28;20277;-66
2021/08/26 00:06:18;;;;;;;4.60;1.77;;;14.70;99.90;;;;;;5033312;28;20231;-66
2021/08/26 00:08:46;;;;;;;0.40;0.30;;;14.70;99.90;;;;;;5033250;28;20181;-66
2021/08/26 00:11:12;;;;;;;8.82;1.23;;;14.70;99.90;;;;;;5033200;28;20212;-66
2021/08/26 00:13:39;;;;;;;10.85;1.10;;;14.70;99.90;;;;;;5033210;28;20173;-66
2021/08/26 00:16:04;;;;;;;0.40;0.20;;;14.70;99.90;;;;;;5033384;28;20173;-66
2021/08/26 00:18:30;;;;;;;1.93;1.37;;;14.70;99.90;;;;;;5032980;28;20490;-66
2021/08/26 00:20:56;;;;;;;0.57;0.57;;;14.70;99.90;;;;;;5033289;28;20186;-66
2021/08/26 00:23:23;;;;;;;0.40;0.20;;;14.80;99.90;;;;;;5033225;28;20257;-66
2021/08/26 00:25:50;;;;;;;0.40;0.20;;;14.80;99.90;;;;;;5033199;28;20177;-66
2021/08/26 00:28:16;;;;;;;1.20;1.20;;;14.90;99.90;;;;;;5032927;28;20779;-66
2021/08/26 00:30:41;;;;;;;0.30;0.20;;;14.80;99.90;;;;;;5033115;28;20640;-66
2021/08/26 00:33:07;;;;;;;6.03;1.10;;;14.90;99.90;;;;;;5033243;28;20324;-66
2021/08/26 00:35:33;;;;;;;0.30;0.20;;;14.90;99.90;;;;;;5033069;28;20181;-66
2021/08/26 00:37:59;;;;;;;1.03;0.30;;;15.00;99.90;;;;;;5033193;28;20435;-66
2021/08/26 00:40:24;;;;;;;1.27;0.70;;;15.00;99.90;;;;;;5032993;28;20261;-66
2021/08/26 00:42:50;;;;;;;0.40;0.20;;;14.90;99.90;;;;;;5032062;28;20274;-66
2021/08/26 00:45:15;;;;;;;0.33;0.20;;;14.80;99.90;;;;;;5033299;28;20182;-66
2021/08/26 00:47:47;;;;;;;0.40;0.20;;;14.90;99.90;;;;;;5032019;28;20181;-66
2021/08/26 00:50:16;;;;;;;5.90;1.02;;;15.10;99.90;;;;;;5032905;28;20260;-66
2021/08/26 00:52:41;;;;;;;1.20;1.10;;;15.00;99.90;;;;;;5033082;28;20192;-66
2021/08/26 00:55:09;;;;;;;0.53;0.53;;;15.00;99.90;;;;;;5032884;28;20174;-66
2021/08/26 00:57:36;;;;;;;0.40;0.20;;;15.00;99.90;;;;;;5031894;28;20447;-66
2021/08/26 01:00:08;;;;;;;0.47;0.40;;;15.00;99.90;;;;;;5032827;28;20227;-66
2021/08/26 01:02:53;;;;;;;0.50;0.50;;;15.00;99.90;;;;;;5032777;28;20207;-66
2021/08/26 01:05:49;;;;;;;0.30;0.20;;;15.00;99.90;;;;;;5036078;28;20185;-66
2021/08/26 01:08:40;;;;;;;0.50;0.20;;;15.10;99.90;;;;;;5034098;28;20208;-66
2021/08/26 01:11:06;;;;;;;3.30;0.80;;;15.10;99.90;;;;;;5036411;28;20990;-66
2021/08/26 01:13:39;;;;;;;7.00;0.60;;;15.00;99.90;;;;;;5035249;28;20507;-66
2021/08/26 01:16:07;;;;;;;1.65;1.55;;;15.00;99.90;;;;;;5036336;28;20462;-66
2021/08/26 01:18:42;;;;;;;1.83;1.50;;;15.00;99.90;;;;;;5036032;28;20501;-66
2021/08/26 01:21:09;;;;;;;0.85;0.40;;;14.90;99.90;;;;;;5035258;28;20438;-66
2021/08/26 01:23:43;;;;;;;4.25;1.27;;;14.90;99.90;;;;;;5036035;28;20181;-66
2021/08/26 01:26:14;;;;;;;7.03;3.00;;;14.90;99.90;;;;;;5036089;28;20255;-66
2021/08/26 01:28:41;;;;;;;0.45;0.43;;;14.90;99.90;;;;;;5034802;28;20195;-66
2021/08/26 01:31:08;;;;;;;8.57;1.17;;;15.00;99.90;;;;;;5035962;28;20547;-66
2021/08/26 01:33:34;;;;;;;0.80;0.80;;;15.00;99.90;;;;;;5035919;28;20174;-66
2021/08/26 01:36:04;;;;;;;0.40;0.40;;;14.90;99.90;;;;;;5035981;28;20173;-66
2021/08/26 01:38:30;;;;;;;1.85;1.50;;;14.90;99.90;;;;;;5035554;28;20416;-66
2021/08/26 01:40:55;;;;;;;0.30;0.20;;;15.00;99.90;;;;;;5035907;28;20188;-66
2021/08/26 01:43:23;;;;;;;9.00;1.30;;;15.00;99.90;;;;;;5035712;28;20435;-66
2021/08/26 01:45:49;;;;;;;1.67;1.13;;;15.00;99.90;;;;;;5034693;28;20287;-66
2021/08/26 01:48:19;;;;;;;0.40;0.30;;;14.90;99.90;;;;;;5035408;28;20456;-66
2021/08/26 01:50:45;;;;;;;0.40;0.30;;;14.90;99.90;;;;;;5035594;28;20212;-66
2021/08/26 01:53:12;;;;;;;7.15;0.82;;;14.80;99.90;;;;;;5035537;28;20185;-64
2021/08/26 01:55:42;;;;;;;0.90;0.60;;;14.90;99.90;;;;;;5035844;28;20170;-64
2021/08/26 01:58:15;;;;;;;0.40;0.20;;;14.80;99.90;;;;;;5035281;28;20241;-64
2021/08/26 02:00:41;;;;;;;0.50;0.50;;;14.90;99.90;;;;;;5035464;28;20252;-64
2021/08/26 02:03:07;;;;;;;3.67;0.77;;;14.90;99.90;;;;;;5035490;28;20638;-64
2021/08/26 02:05:32;;;;;;;0.40;0.20;;;14.90;99.90;;;;;;5035147;28;20436;-64
2021/08/26 02:07:58;;;;;;;0.67;0.67;;;14.70;99.90;;;;;;5035415;28;20212;-64
2021/08/26 02:10:24;;;;;;;0.60;0.43;;;14.70;99.90;;;;;;5035103;28;20216;-64
2021/08/26 02:12:52;;;;;;;0.30;0.20;;;14.60;99.90;;;;;;5035516;28;20520;-64
2021/08/26 02:15:18;;;;;;;4.10;1.35;;;14.70;99.90;;;;;;5034173;28;20885;-63
2021/08/26 02:17:45;;;;;;;1.60;1.02;;;14.70;99.90;;;;;;5034893;28;20559;-63
2021/08/26 02:20:11;;;;;;;5.10;1.55;;;14.50;99.90;;;;;;5034360;28;20185;-63
2021/08/26 02:22:37;;;;;;;3.60;1.85;;;14.50;99.90;;;;;;5034901;28;20204;-63
2021/08/26 02:25:07;;;;;;;1.70;1.47;;;14.50;99.90;;;;;;5033970;28;20225;-63
2021/08/26 02:27:33;;;;;;;1.30;1.13;;;14.50;99.90;;;;;;5034544;28;20424;-63
2021/08/26 02:29:58;;;;;;;1.13;1.03;;;14.60;99.90;;;;;;5034922;28;20512;-63
2021/08/26 02:32:29;;;;;;;0.40;0.20;;;14.70;99.90;;;;;;5034748;28;20474;-63
2021/08/26 02:34:55;;;;;;;0.30;0.20;;;14.60;99.90;;;;;;5035014;28;20536;-64
2021/08/26 02:37:21;;;;;;;0.40;0.30;;;14.70;99.90;;;;;;5034675;28;20177;-64
2021/08/26 02:39:46;;;;;;;2.50;0.87;;;14.70;99.90;;;;;;5033518;28;20177;-64
2021/08/26 02:42:12;;;;;;;0.90;0.90;;;14.70;99.90;;;;;;5034760;28;20689;-64
2021/08/26 02:44:38;;;;;;;0.30;0.10;;;14.80;99.90;;;;;;5034681;28;20217;-64
2021/08/26 02:47:03;;;;;;;0.30;0.20;;;14.80;99.90;;;;;;5034505;28;20178;-64
2021/08/26 02:49:29;;;;;;;0.53;0.53;;;14.70;99.90;;;;;;5034578;28;20181;-64
2021/08/26 02:51:54;;;;;;;0.40;0.30;;;14.70;99.90;;;;;;5034454;28;20201;-64
2021/08/26 02:54:19;;;;;;;1.57;1.03;;;14.80;99.90;;;;;;5034421;28;20393;-64
2021/08/26 02:56:45;;;;;;;0.30;0.23;;;14.80;99.90;;;;;;5033312;28;20173;-64
2021/08/26 02:59:10;;;;;;;1.67;0.57;;;14.70;99.90;;;;;;5034196;28;20636;-64
2021/08/26 03:01:36;;;;;;;0.60;0.40;;;14.70;99.90;;;;;;5034366;28;20213;-65
2021/08/26 03:04:02;;;;;;;1.07;0.33;;;14.70;99.90;;;;;;5034275;28;20189;-65
2021/08/26 03:06:27;;;;;;;0.60;0.60;;;14.70;99.90;;;;;;5034102;28;20531;-65
2021/08/26 03:08:53;;;;;;;0.67;0.67;;;14.70;99.90;;;;;;5033870;28;20439;-65
2021/08/26 03:11:18;;;;;;;0.30;0.27;;;14.60;99.90;;;;;;5034299;28;20213;-64
2021/08/26 03:13:44;;;;;;;1.40;0.90;;;14.70;99.90;;;;;;5033045;28;20169;-64
2021/08/26 03:16:09;;;;;;;0.30;0.10;;;14.70;99.90;;;;;;5033897;28;20239;-64
2021/08/26 03:18:35;;;;;;;2.67;0.43;;;14.70;99.90;;;;;;5033940;28;20173;-64
2021/08/26 03:21:01;;;;;;;0.50;0.23;;;14.80;99.90;;;;;;5033872;28;20177;-64
2021/08/26 03:23:26;;;;;;;0.80;0.57;;;14.70;99.90;;;;;;5033947;28;20192;-64
2021/08/26 03:25:52;;;;;;;0.30;0.20;;;14.60;99.90;;;;;;5033848;28;20264;-64
2021/08/26 03:28:20;;;;;;;0.30;0.20;;;14.60;99.90;;;;;;5033242;28;20182;-64
2021/08/26 03:30:45;;;;;;;4.93;3.22;;;14.70;99.90;;;;;;5032913;28;20205;-64
2021/08/26 03:33:11;;;;;;;0.60;0.50;;;14.60;99.90;;;;;;5033865;28;20244;-64
2021/08/26 03:35:36;;;;;;;0.40;0.30;;;14.70;99.90;;;;;;5032863;28;20181;-64
2021/08/26 03:38:02;;;;;;;1.53;1.43;;;14.60;99.90;;;;;;5033462;28;20177;-64
2021/08/26 03:40:28;;;;;;;0.60;0.47;;;14.70;99.90;;;;;;5033722;28;20614;-64
2021/08/26 03:42:54;;;;;;;0.90;0.60;;;14.70;99.90;;;;;;5033238;28;20423;-64
2021/08/26 03:45:19;;;;;;;0.40;0.40;;;14.70;99.90;;;;;;5033729;28;20201;-64
2021/08/26 03:47:45;;;;;;;10.07;2.53;;;14.60;99.90;;;;;;5033645;28;20231;-64
2021/08/26 03:50:11;;;;;;;1.37;0.60;;;14.60;99.90;;;;;;5033451;28;20522;-64
2021/08/26 03:52:37;;;;;;;0.70;0.40;;;14.70;99.90;;;;;;5033520;28;20266;-64
2021/08/26 03:55:02;;;;;;;2.97;0.87;;;14.70;99.90;;;;;;5033644;28;20174;-64
2021/08/26 03:57:28;;;;;;;0.30;0.10;;;14.70;99.90;;;;;;5033410;28;20630;-64
2021/08/26 03:59:53;;;;;;;0.60;0.60;;;14.60;99.90;;;;;;5033303;28;20188;-64
2021/08/26 04:02:19;;;;;;;5.47;2.93;;;14.50;99.90;;;;;;5032572;28;20264;-64
2021/08/26 04:04:44;;;;;;;0.30;0.20;;;14.60;99.90;;;;;;5033427;28;20524;-65
2021/08/26 04:07:11;;;;;;;1.70;0.83;;;14.60;99.90;;;;;;5033281;28;20259;-64
2021/08/26 04:09:37;;;;;;;0.30;0.20;;;14.60;99.90;;;;;;5033111;28;20181;-64
2021/08/26 04:12:03;;;;;;;0.53;0.53;;;14.70;99.90;;;;;;5033361;28;20213;-65
2021/08/26 04:14:31;;;;;;;0.30;0.10;;;14.60;99.90;;;;;;5033329;28;20205;-65
2021/08/26 04:16:56;;;;;;;0.30;0.20;;;14.60;99.90;;;;;;5033076;28;20416;-65
2021/08/26 04:19:22;;;;;;;0.40;0.20;;;14.70;99.90;;;;;;5033093;28;20481;-65
2021/08/26 04:21:47;;;;;;;0.30;0.10;;;14.80;99.90;;;;;;5033196;28;20603;-65
2021/08/26 04:24:13;;;;;;;1.47;0.63;;;14.80;99.90;;;;;;5033062;28;20174;-65
2021/08/26 04:26:38;;;;;;;0.30;0.20;;;14.90;99.90;;;;;;5033260;28;20516;-65
2021/08/26 04:29:04;;;;;;;0.77;0.53;;;14.70;99.90;;;;;;5032063;28;20208;-65
2021/08/26 04:31:29;;;;;;;1.43;0.50;;;14.70;99.90;;;;;;5032971;28;20650;-65
2021/08/26 04:33:55;;;;;;;0.60;0.40;;;14.80;99.90;;;;;;5033314;28;20174;-65
2021/08/26 04:36:20;;;;;;;0.40;0.30;;;14.70;99.90;;;;;;5033196;28;20278;-65
2021/08/26 04:38:46;;;;;;;0.67;0.50;;;14.80;99.90;;;;;;5033739;28;20177;-65
2021/08/26 04:41:12;;;;;;;0.40;0.20;;;14.90;99.90;;;;;;5036925;28;20173;-65
2021/08/26 04:43:37;;;;;;;5.43;0.77;;;15.00;99.90;;;;;;5036932;28;20182;-65
2021/08/26 04:46:03;;;;;;;0.40;0.30;;;15.00;99.90;;;;;;5037023;28;20177;-65
2021/08/26 04:48:28;;;;;;;0.47;0.47;;;15.00;99.90;;;;;;5036476;28;20254;-65
2021/08/26 04:50:54;;;;;;;0.30;0.20;;;15.10;99.90;;;;;;5037069;28;20217;-65
2021/08/26 04:53:19;;;;;;;0.30;0.20;;;15.10;99.90;;;;;;5036518;28;20174;-65
2021/08/26 04:55:45;;;;;;;0.30;0.20;;;15.00;99.90;;;;;;5036662;28;20177;-65
2021/08/26 04:58:10;;;;;;;0.53;0.50;;;14.90;99.90;;;;;;5036587;28;20253;-65
2021/08/26 05:00:36;;;;;;;0.40;0.20;;;14.90;99.90;;;;;;5036943;28;20519;-65
2021/08/26 05:03:03;;;;;;;8.03;2.10;;;14.80;99.90;;;;;;5036086;28;20204;-64
2021/08/26 05:05:29;;;;;;;0.30;0.10;;;14.80;99.90;;;;;;5036673;28;20627;-64
2021/08/26 05:07:54;;;;;;;1.40;0.37;;;14.90;99.90;;;;;;5035841;28;20205;-64
2021/08/26 05:10:20;;;;;;;0.30;0.20;;;15.00;99.90;;;;;;5036361;28;20516;-64
2021/08/26 05:12:45;;;;;;;1.67;1.57;;;15.00;99.90;;;;;;5036165;28;20201;-66
2021/08/26 05:15:11;;;;;;;1.70;0.87;;;15.20;99.90;;;;;;5036266;28;20212;-65
2021/08/26 05:17:36;;;;;;;0.60;0.57;;;15.00;99.90;;;;;;5034618;28;20192;-65
2021/08/26 05:20:02;;;;;;;0.57;0.57;;;14.90;99.90;;;;;;5036271;28;20243;-65
2021/08/26 05:22:28;;;;;;;0.30;0.20;;;15.00;99.90;;;;;;5036110;28;20194;-65
2021/08/26 05:24:53;;;;;;;0.40;0.20;;;15.00;99.90;;;;;;5036040;28;20424;-65
2021/08/26 05:27:19;;;;;;;1.73;0.90;;;15.10;99.90;;;;;;5036021;28;20248;-65
2021/08/26 05:29:45;;;;;;;0.40;0.30;;;15.00;99.90;;;;;;5035896;28;20502;-65
2021/08/26 05:32:10;;;;;;;0.37;0.20;;;15.20;99.90;;;;;;5035982;28;20197;-65
2021/08/26 05:34:36;;;;;;;3.93;0.73;;;15.40;99.90;;;;;;5035504;28;20185;-65
2021/08/26 05:37:02;;;;;;;0.40;0.30;;;15.60;99.90;;;;;;5036008;28;20265;-65
2021/08/26 05:39:27;;;;;;;9.63;1.37;;;15.70;99.90;;;;;;5035558;28;20261;-65
2021/08/26 05:41:53;;;;;;;0.80;0.50;;;15.70;99.90;;;;;;5035525;28;20417;-65
2021/08/26 05:44:19;;;;;;;1.60;0.77;;;15.80;99.90;;;;;;5034452;28;20181;-65
2021/08/26 05:46:45;;;;;;;1.60;0.73;;;15.80;99.90;;;;;;5035342;28;20177;-65
2021/08/26 05:49:11;;;;;;;0.40;0.20;;;15.70;99.90;;;;;;5035107;28;20508;-66
2021/08/26 05:51:37;;;;;;;0.40;0.20;;;15.70;99.90;;;;;;5036760;28;20459;-66
2021/08/26 05:54:03;;;;;;;0.43;0.37;;;15.80;99.90;;;;;;5040927;28;20189;-66
2021/08/26 05:56:29;;;;;;;0.40;0.20;;;15.70;99.90;;;;;;5051562;28;20441;-66
2021/08/26 05:58:58;;;;;;;6.53;2.72;;;15.70;99.90;;;;;;5052852;28;20959;-66
2021/08/26 06:01:27;;;;;;;0.37;0.23;;;15.70;99.90;;;;;;5035060;28;20611;-65
2021/08/26 06:03:53;;;;;;;0.40;0.20;;;15.70;99.90;;;;;;5035468;28;20828;-67
2021/08/26 06:06:19;;;;;;;0.67;0.43;;;15.80;99.90;;;;;;5035064;28;20231;-67
2021/08/26 06:08:44;;;;;;;0.40;0.40;;;15.80;99.90;;;;;;5047756;28;20443;-66
2021/08/26 06:11:10;;;;;;;0.40;0.30;;;15.90;99.90;;;;;;5047483;28;20209;-66
2021/08/26 06:13:36;;;;;;;0.40;0.20;;;16.00;99.90;;;;;;5035054;28;20593;-66
2021/08/26 06:16:02;;;;;;;2.20;2.10;;;16.00;99.90;;;;;;5050161;28;20173;-67
2021/08/26 06:18:27;;;;;;;0.40;0.20;;;16.10;99.90;;;;;;5034765;28;20182;-67
2021/08/26 06:20:53;;;;;;;0.40;0.30;;;16.20;99.90;;;;;;5034843;28;20451;-67
2021/08/26 06:23:18;;;;;;;0.40;0.20;;;16.40;99.90;;;;;;5033819;28;20189;-67
2021/08/26 06:25:44;;;;;;;0.40;0.20;;;16.60;99.90;;;;;;5034205;28;20181;-67
2021/08/26 06:28:09;;;;;;;3.83;1.67;;;16.60;99.90;;;;;;5034270;28;20673;-67
2021/08/26 06:30:35;;;;;;;0.40;0.20;;;16.20;99.90;;;;;;5034759;28;20623;-68
2021/08/26 06:33:00;;;;;;;4.23;2.53;;;15.80;99.90;;;;;;5034344;28;20188;-67
2021/08/26 06:35:26;;;;;;;0.40;0.20;;;15.70;99.90;;;;;;5034466;28;20402;-68
2021/08/26 06:37:52;;;;;;;0.40;0.30;;;15.70;99.90;;;;;;5034170;28;20277;-67
2021/08/26 06:40:17;;;;;;;1.70;1.13;;;15.60;99.90;;;;;;5034003;28;20184;-68
2021/08/26 06:42:44;;;;;;;0.53;0.53;;;15.50;99.90;;;;;;5033548;28;20197;-68
2021/08/26 06:45:10;;;;;;;0.90;0.80;;;15.40;99.90;;;;;;5034362;28;20201;-68
2021/08/26 06:47:36;;;;;;;1.40;0.60;;;15.40;99.90;;;;;;5033955;28;20897;-68
2021/08/26 06:50:02;;;;;;;0.73;0.73;;;15.40;99.90;;;;;;5033156;28;20192;-68
2021/08/26 06:52:28;;;;;;;0.40;0.20;;;15.50;99.90;;;;;;5034127;28;20482;-67
2021/08/26 06:54:53;;;;;;;1.37;1.27;;;15.60;99.90;;;;;;5034120;28;20424;-67
2021/08/26 06:57:19;;;;;;;0.40;0.17;;;15.70;99.90;;;;;;5033753;28;20182;-66
2021/08/26 06:59:45;;;;;;;0.40;0.17;;;15.60;99.90;;;;;;5038449;28;20197;-69
2021/08/26 07:02:11;;;;;;;0.77;0.67;;;15.60;99.90;;;;;;5033787;28;20178;-70
2021/08/26 07:04:36;;;;;;;0.40;0.30;;;15.70;99.90;;;;;;5032843;28;20884;-70
2021/08/26 07:07:02;;;;;;;0.40;0.10;;;16.00;99.90;;;;;;5033671;28;20549;-70
2021/08/26 07:09:27;;;;;;;0.40;0.20;;;16.60;99.90;;;;;;5034050;28;20194;-70
2021/08/26 07:11:53;;;;;;;0.40;0.20;;;17.10;99.90;;;;;;5034285;28;20215;-69
2021/08/26 07:14:19;;;;;;;0.40;0.20;;;17.30;99.90;;;;;;5035228;28;20177;-69
2021/08/26 07:16:45;;;;;;;1.27;0.70;;;16.70;99.90;;;;;;5034988;28;20186;-68
2021/08/26 07:19:10;;;;;;;0.50;0.40;;;16.20;99.90;;;;;;5033967;28;20181;-68
2021/08/26 07:21:36;;;;;;;0.40;0.20;;;16.10;99.90;;;;;;5032935;28;20446;-68
2021/08/26 07:24:02;;;;;;;1.10;0.77;;;16.10;99.90;;;;;;5032532;28;20235;-68
2021/08/26 07:26:28;;;;;;;12.70;3.43;;;16.00;99.90;;;;;;5032625;28;20936;-69
2021/08/26 07:28:55;;;;;;;0.40;0.20;;;16.10;99.90;;;;;;5033062;28;20428;-66
2021/08/26 07:31:21;;;;;;;0.40;0.20;;;16.30;99.90;;;;;;5033864;28;20582;-68
2021/08/26 07:33:47;;;;;;;0.67;0.40;;;16.50;99.90;;;;;;5033914;28;20427;-69
2021/08/26 07:36:12;;;;;;;0.40;0.10;;;16.80;99.90;;;;;;5033636;28;20819;-69
2021/08/26 07:38:38;;;;;;;0.40;0.20;;;16.50;99.90;;;;;;5033058;28;20173;-68
2021/08/26 07:41:03;;;;;;;1.60;0.60;;;16.70;99.90;;;;;;5033659;28;20185;-67
2021/08/26 07:43:31;;;;;;;0.50;0.30;;;16.50;99.90;;;;;;5033458;28;20578;-68
2021/08/26 07:45:57;;;;;;;0.50;0.50;;;16.70;99.90;;;;;;5033480;28;20513;-67
2021/08/26 07:48:23;;;;;;;0.40;0.20;;;16.90;99.90;;;;;;5033036;28;20431;-68
2021/08/26 07:50:49;;;;;;;1.70;0.60;;;17.00;99.90;;;;;;5033316;28;20850;-69
2021/08/26 07:53:15;;;;;;;0.40;0.30;;;16.90;99.90;;;;;;5033368;28;20169;-68
2021/08/26 07:55:41;;;;;;;0.40;0.30;;;16.50;99.90;;;;;;5033633;28;20771;-68
2021/08/26 07:58:07;;;;;;;0.40;0.20;;;16.30;99.90;;;;;;5033163;28;20197;-68
2021/08/26 08:00:32;;;;;;;0.40;0.20;;;16.40;99.90;;;;;;5033362;28;20528;-68
2021/08/26 08:02:58;;;;;;;0.60;0.40;;;16.60;72.20;;;;;;5033341;28;20178;-68
2021/08/26 08:05:23;;;;;;;0.40;0.20;;;17.00;1.00;;;;;;5033287;28;20559;-70
2021/08/26 08:07:52;;;;;;;0.50;0.40;;;16.80;1.00;;;;;;5033298;28;20537;-71
2021/08/26 08:10:18;;;;;;;0.40;0.20;;;16.90;1.00;;;;;;5032074;28;20185;-73
2021/08/26 08:12:43;;;;;;;6.13;2.17;;;17.20;1.00;;;;;;5033049;28;20459;-70
2021/08/26 08:15:10;;;;;;;0.40;0.20;;;17.10;1.00;;;;;;5037119;28;20287;-71
2021/08/26 08:17:36;;;;;;;0.40;0.30;;;17.30;1.00;;;;;;5036496;28;20180;-73
2021/08/26 08:20:04;;;;;;;2.40;0.40;;;17.40;1.00;;;;;;5036339;28;20428;-69
2021/08/26 08:22:29;;;;;;;2.93;0.40;;;17.00;1.00;;;;;;5037087;28;20537;-66
2021/08/26 08:24:55;;;;;;;0.60;0.53;;;17.20;1.00;;;;;;5035539;28;20908;-68
2021/08/26 08:27:21;;;;;;;0.50;0.30;;;17.00;1.00;;;;;;5037010;28;20578;-66
2021/08/26 08:29:47;;;;;;;0.50;0.40;;;16.70;1.00;;;;;;5036183;28;20187;-67
2021/08/26 08:32:13;;;;;;;0.57;0.30;;;16.50;1.00;;;;;;5036591;28;20468;-67
2021/08/26 08:34:38;;;;;;;0.40;0.20;;;16.90;1.00;;;;;;5036795;28;20185;-66
2021/08/26 08:37:04;;;;;;;0.40;0.20;;;17.00;1.00;;;;;;5036728;28;20185;-66
2021/08/26 08:39:30;;;;;;;2.40;0.70;;;17.10;1.00;;;;;;5036462;28;20227;-68
2021/08/26 08:41:55;;;;;;;0.40;0.20;;;16.70;1.00;;;;;;5036784;28;20174;-65
2021/08/26 08:44:21;;;;;;;0.50;0.20;;;16.80;1.00;;;;;;5036540;28;20186;-65
2021/08/26 08:46:50;;;;;;;1.10;0.60;;;16.70;1.00;;;;;;5037002;28;20216;-69
2021/08/26 08:49:20;;;;;;;0.40;0.20;;;16.90;1.00;;;;;;5035177;28;20185;-69
2021/08/26 08:51:47;;;;;;;0.50;0.50;;;17.10;1.00;;;;;;5036562;28;20725;-67
2021/08/26 08:54:12;;;;;;;0.40;0.20;;;17.20;99.90;;;;;;5036303;28;20792;-67
2021/08/26 08:56:38;;;;;;;0.40;0.20;;;17.00;1.00;;;;;;5036209;28;20462;-67
2021/08/26 08:59:04;;;;;;;1.40;1.07;;;17.00;1.00;;;;;;5036360;28;20622;-68
2021/08/26 09:01:30;;;;;;;0.60;0.50;;;17.20;99.90;;;;;;5036622;28;20184;-67
2021/08/26 09:03:55;;;;;;;0.40;0.20;;;17.20;99.90;;;;;;5036142;28;20633;-69
2021/08/26 09:06:21;;;;;;;0.40;0.20;;;17.80;99.90;;;;;;5035584;28;20454;-68
2021/08/26 09:09:04;;;;;;;0.50;0.40;;;17.90;99.90;;;;;;5036135;28;20188;-69
2021/08/26 09:11:30;;;;;;;2.30;0.57;;;17.30;99.90;;;;;;5036216;28;20651;-68
2021/08/26 09:14:07;;;;;;;0.40;0.20;;;17.40;99.90;;;;;;5036009;28;20420;-68
2021/08/26 09:16:46;;;;;;;0.40;0.20;;;17.50;99.90;;;;;;5036038;28;20419;-68
2021/08/26 09:19:42;;;;;;;0.60;0.30;;;17.50;1.00;;;;;;5036290;28;20775;-68
2021/08/26 09:22:08;;;;;;;0.50;0.40;;;17.70;99.90;;;;;;5034193;28;20519;-67
2021/08/26 09:24:44;;;;;;;7.83;2.13;;;17.30;99.90;;;;;;5035017;28;20459;-67
2021/08/26 09:27:10;;;;;;;0.80;0.80;;;17.00;99.90;;;;;;5035356;28;20551;-67
2021/08/26 09:30:02;;;;;;;2.60;0.50;;;16.90;99.90;;;;;;5035773;28;20466;-67
2021/08/26 09:32:46;;;;;;;0.40;0.20;;;16.80;1.00;;;;;;5034762;28;20551;-68
2021/08/26 09:35:16;;;;;;;0.40;0.20;;;17.10;99.90;;;;;;5035869;28;20412;-68
2021/08/26 09:37:59;;;;;;;0.50;0.40;;;17.40;99.90;;;;;;5035512;28;20478;-67
2021/08/26 09:40:28;;;;;;;0.50;0.20;;;17.60;1.00;;;;;;5035546;28;20447;-67
2021/08/26 09:43:04;;;;;;;1.17;0.63;;;17.40;1.00;;;;;;5035374;28;20510;-67
2021/08/26 09:45:35;;;;;;;0.87;0.40;;;17.30;1.00;;;;;;5035619;28;20884;-65
2021/08/26 09:48:06;;;;;;;0.40;0.20;;;17.30;99.90;;;;;;5035639;28;20423;-66
2021/08/26 09:50:38;;;;;;;0.50;0.37;;;17.50;1.00;;;;;;5035411;28;20539;-66
2021/08/26 09:53:04;;;;;;;0.40;0.20;;;17.70;99.90;;;;;;5035500;28;20497;-66
2021/08/26 09:55:48;;;;;;;0.50;0.47;;;17.90;99.90;;;;;;5035371;28;20439;-65
2021/08/26 09:58:18;;;;;;;1.90;0.50;;;17.80;99.90;;;;;;5035183;28;20428;-67
2021/08/26 10:00:44;;;;;;;0.40;0.17;;;18.10;99.90;;;;;;5034958;28;20424;-66
2021/08/26 10:03:12;;;;;;;0.40;0.20;;;18.20;99.90;;;;;;5034710;28;20531;-66
2021/08/26 10:05:39;;;;;;;0.40;0.20;;;18.10;1.00;;;;;;5035135;28;20491;-66
2021/08/26 10:08:06;;;;;;;0.40;0.20;;;18.00;99.90;;;;;;5034810;28;20436;-67
2021/08/26 10:10:33;;;;;;;0.40;0.20;;;17.80;99.90;;;;;;5035031;28;20420;-67
2021/08/26 10:13:00;;;;;;;2.47;1.13;;;17.90;99.90;;;;;;5034531;28;20956;-67
2021/08/26 10:15:26;;;;;;;0.40;0.20;;;18.20;1.00;;;;;;5035050;28;20775;-65
2021/08/26 10:17:53;;;;;;;0.60;0.37;;;18.70;99.90;;;;;;5034684;28;20416;-68
2021/08/26 10:20:22;;;;;;;0.40;0.20;;;18.10;18.60;;;;;;5034543;28;20665;-65
2021/08/26 10:22:49;;;;;;;0.40;0.20;;;18.10;1.00;;;;;;5034690;28;20959;-65
2021/08/26 10:25:16;;;;;;;8.83;0.60;;;18.70;99.90;;;;;;5034184;28;20432;-65
2021/08/26 10:27:46;;;;;;;0.60;0.30;;;18.90;1.00;;;;;;5034557;28;20436;-65
2021/08/26 10:30:32;;;;;;;0.40;0.20;;;18.40;1.00;;;;;;5034780;28;20508;-65
2021/08/26 10:33:11;;;;;;;0.40;0.20;;;18.20;1.00;;;;;;5015039;28;20460;-65
2021/08/26 10:36:03;;;;;;;0.50;0.30;;;18.30;99.90;;;;;;5015059;28;20455;-65
2021/08/26 10:38:33;;;;;;;8.23;1.23;;;18.20;1.00;;;;;;5014403;28;20505;-66
2021/08/26 10:41:19;;;;;;;0.40;0.20;;;18.10;1.00;;;;;;5028059;28;20501;-66
2021/08/26 10:43:53;;;;;;;0.40;0.20;;;17.70;14.70;;;;;;5030094;28;20546;-68
2021/08/26 10:46:46;;;;;;;0.40;0.20;;;17.30;1.00;;;;;;5034443;28;20949;-66
2021/08/26 10:49:12;;;;;;;0.40;0.20;;;17.10;99.90;;;;;;5034058;28;20525;-66
2021/08/26 10:51:43;;;;;;;0.40;0.20;;;16.90;99.90;;;;;;5034148;28;20857;-67
2021/08/26 10:54:28;;;;;;;0.40;0.20;;;17.00;99.90;;;;;;5034227;28;20223;-65
2021/08/26 10:56:55;;;;;;;0.40;0.20;;;17.60;99.90;;;;;;5034128;28;20420;-67
2021/08/26 10:59:32;;;;;;;0.40;0.13;;;18.10;1.00;;;;;;5070970;28;20615;-67
2021/08/26 11:01:59;;;;;;;0.50;0.40;;;18.40;99.90;;;;;;5070858;28;20423;-69
2021/08/26 11:04:30;;;;;;;0.43;0.20;;;18.40;99.90;;;;;;5070772;28;20422;-69
2021/08/26 11:06:57;;;;;;;0.40;0.20;;;17.90;99.90;;;;;;5069342;28;20906;-69
2021/08/26 11:09:27;;;;;;;2.17;0.97;;;17.60;1.00;;;;;;5069142;28;20496;-69
2021/08/26 11:11:59;;;;;;;0.40;0.30;;;17.80;99.90;;;;;;5070514;28;20832;-68
2021/08/26 11:14:28;;;;;;;1.43;0.70;;;17.50;1.00;;;;;;5070353;28;20426;-70
2021/08/26 11:16:56;;;;;;;1.00;0.83;;;17.30;27.60;;;;;;5068924;28;20513;-67
2021/08/26 11:19:26;;;;;;;0.40;0.20;;;17.30;99.90;;;;;;5069890;28;20496;-67
2021/08/26 11:21:51;;;;;;;0.40;0.20;;;17.30;1.00;;;;;;5070106;28;20459;-68
2021/08/26 11:24:18;;;;;;;0.50;0.30;;;17.70;67.70;;;;;;5068908;28;20513;-68
2021/08/26 11:26:47;;;;;;;0.50;0.30;;;18.20;1.00;;;;;;5069633;28;20640;-71
2021/08/26 11:29:21;;;;;;;0.60;0.30;;;18.90;1.00;;;;;;5068119;28;20451;-70
2021/08/26 11:32:03;;;;;;;0.40;0.20;;;18.70;1.00;;;;;;5069843;28;20414;-70
2021/08/26 11:34:41;;;;;;;0.40;0.20;;;18.50;99.90;;;;;;5068930;28;20510;-70
2021/08/26 11:37:18;;;;;;;0.40;0.20;;;18.20;1.00;;;;;;5068733;28;20433;-69
2021/08/26 11:40:05;;;;;;;0.50;0.30;;;18.50;1.00;;;;;;5068413;28;20871;-69
2021/08/26 11:42:48;;;;;;;0.40;0.20;;;18.50;1.00;;;;;;5069946;28;20927;-71
2021/08/26 11:45:27;;;;;;;0.40;0.20;;;18.20;99.90;;;;;;5071042;28;20414;-70
2021/08/26 11:47:58;;;;;;;0.40;0.20;;;17.80;1.00;;;;;;5071223;28;20458;-70
2021/08/26 11:50:31;;;;;;;0.40;0.20;;;18.00;1.00;;;;;;5071135;28;20426;-70
2021/08/26 11:53:16;;;;;;;0.77;0.50;;;18.10;1.00;;;;;;5069744;28;20430;-71
2021/08/26 11:55:44;;;;;;;0.40;0.20;;;17.60;1.00;;;;;;5068355;28;20626;-69
2021/08/26 11:58:12;;;;;;;0.50;0.20;;;17.30;1.00;;;;;;5068959;28;20461;-69
2021/08/26 12:00:50;;;;;;;2.00;0.83;;;17.20;1.00;;;;;;5088382;28;20476;-69
2021/08/26 12:03:17;;;;;;;0.40;0.20;;;17.00;1.00;;;;;;5089712;28;20429;-68
2021/08/26 12:05:45;;;;;;;1.77;0.57;;;17.00;1.00;;;;;;5088511;28;20825;-68
2021/08/26 12:08:11;;;;;;;0.40;0.20;;;17.40;99.90;;;;;;5088591;28;20553;-68
2021/08/26 12:10:44;;;;;;;0.40;0.20;;;17.40;1.00;;;;;;5076727;28;20509;-68
2021/08/26 12:13:16;;;;;;;0.80;0.60;;;17.50;1.00;;;;;;5059173;28;20639;-69
2021/08/26 12:15:45;;;;;;;0.60;0.53;;;17.70;1.00;;;;;;5055685;28;20458;-66
2021/08/26 12:18:30;;;;;;;0.50;0.20;;;17.90;99.90;;;;;;5055995;28;20426;-70
2021/08/26 12:21:02;;;;;;;0.40;0.20;;;18.10;1.00;;;;;;5055755;28;20435;-68
2021/08/26 12:23:29;;;;;;;0.40;0.10;;;17.60;1.00;;;;;;5055680;28;20423;-68
2021/08/26 12:26:09;;;;;;;0.40;0.20;;;17.70;1.00;;;;;;5055841;28;20446;-70
2021/08/26 12:28:39;;;;;;;0.40;0.20;;;17.80;1.00;;;;;;5055736;28;20497;-68
2021/08/26 12:31:13;;;;;;;0.40;0.20;;;17.70;99.90;;;;;;5054449;28;20431;-67
2021/08/26 12:33:58;;;;;;;0.40;0.20;;;17.60;1.00;;;;;;5054708;28;20423;-66
2021/08/26 12:36:24;;;;;;;4.43;0.40;;;17.40;1.00;;;;;;5055665;28;20723;-68
2021/08/26 12:38:50;;;;;;;0.40;0.20;;;17.00;99.90;;;;;;5054417;28;20438;-66
2021/08/26 12:41:18;;;;;;;0.40;0.20;;;17.40;99.90;;;;;;5054310;28;20518;-67
2021/08/26 12:43:57;;;;;;;0.40;0.20;;;17.50;32.90;;;;;;5055708;28;20189;-67
2021/08/26 12:46:26;;;;;;;0.50;0.20;;;17.80;1.00;;;;;;5055394;28;20450;-67
2021/08/26 12:49:05;;;;;;;0.50;0.30;;;17.70;99.90;;;;;;5055271;28;20466;-68
2021/08/26 12:51:31;;;;;;;0.40;0.20;;;17.30;1.00;;;;;;5055108;28;20430;-68
2021/08/26 12:53:56;;;;;;;0.67;0.37;;;17.10;1.00;;;;;;5055527;28;20430;-68
2021/08/26 12:56:23;;;;;;;0.50;0.40;;;17.30;1.00;;;;;;5054912;28;20184;-67